Harris, Minnesota
Current Conditions -  °F | °C
As of 4:55 AM on Wednesday 26 Nov 2014 (Local Time) from KROS Reporting Station
Overcast Overcast  
Wind Chill: 15°   Ceiling: 6000
Heat Index: 22°   Visibility: 10mi
Dew Point: 17°   Wind: 5mph
Humidity: 83%   Direction: 40°NE
Pressure: 30.08"   Gusts: NA
Location:  45.59°N, 92.97°W
Report Text: KROS 261055Z AUTO 04004KT 10SM OVC060 M06/M08 A3008 RMK AO2 T10571081
Loading
Personal Weather Stations






























Interactive Weather Map New forecast layout! Learn more

10-Day Weather Forecast

Advertisements
Track Severe Weather on mobile